sensor_id;sensor_type;location;lat;lon;timestamp;pressure;altitude;pressure_sealevel;temperature;humidity
48563;BME280;34981;49.104;11.396;2022-09-25T00:02:04;97439.44;;;10.47;97.03
48563;BME280;34981;49.104;11.396;2022-09-25T00:04:31;97430.66;;;10.40;97.03
48563;BME280;34981;49.104;11.396;2022-09-25T00:06:58;97433.81;;;10.37;96.98
48563;BME280;34981;49.104;11.396;2022-09-25T00:09:25;97425.75;;;10.37;97.00
48563;BME280;34981;49.104;11.396;2022-09-25T00:11:52;97422.00;;;10.38;97.00
48563;BME280;34981;49.104;11.396;2022-09-25T00:14:19;97414.19;;;10.36;97.02
48563;BME280;34981;49.104;11.396;2022-09-25T00:16:46;97417.31;;;10.33;97.00
48563;BME280;34981;49.104;11.396;2022-09-25T00:19:18;97425.06;;;10.30;96.99
48563;BME280;34981;49.104;11.396;2022-09-25T00:22:05;97427.16;;;10.28;96.99
48563;BME280;34981;49.104;11.396;2022-09-25T00:24:32;97423.25;;;10.24;97.07
48563;BME280;34981;49.104;11.396;2022-09-25T00:26:59;97421.66;;;10.23;97.08
48563;BME280;34981;49.104;11.396;2022-09-25T00:29:27;97424.69;;;10.26;97.09
48563;BME280;34981;49.104;11.396;2022-09-25T00:31:55;97441.19;;;10.30;97.10
48563;BME280;34981;49.104;11.396;2022-09-25T00:34:22;97440.25;;;10.36;97.13
48563;BME280;34981;49.104;11.396;2022-09-25T00:36:49;97445.16;;;10.39;97.14
48563;BME280;34981;49.104;11.396;2022-09-25T00:39:16;97439.78;;;10.39;97.13
48563;BME280;34981;49.104;11.396;2022-09-25T00:41:43;97440.38;;;10.41;97.14
48563;BME280;34981;49.104;11.396;2022-09-25T00:46:56;97437.78;;;10.34;97.14
48563;BME280;34981;49.104;11.396;2022-09-25T00:49:23;97442.34;;;10.34;97.14
48563;BME280;34981;49.104;11.396;2022-09-25T00:51:52;97435.31;;;10.33;97.15
48563;BME280;34981;49.104;11.396;2022-09-25T00:54:25;97439.66;;;10.34;97.15
48563;BME280;34981;49.104;11.396;2022-09-25T00:56:55;97441.28;;;10.35;97.17
48563;BME280;34981;49.104;11.396;2022-09-25T00:59:26;97454.75;;;10.35;97.15
48563;BME280;34981;49.104;11.396;2022-09-25T01:01:55;97457.19;;;10.36;97.17
48563;BME280;34981;49.104;11.396;2022-09-25T01:04:22;97449.13;;;10.36;97.17
48563;BME280;34981;49.104;11.396;2022-09-25T01:06:50;97455.34;;;10.37;97.18
48563;BME280;34981;49.104;11.396;2022-09-25T01:09:17;97455.56;;;10.35;97.18
48563;BME280;34981;49.104;11.396;2022-09-25T01:11:44;97466.31;;;10.35;97.19
48563;BME280;34981;49.104;11.396;2022-09-25T01:14:12;97465.50;;;10.35;97.24
48563;BME280;34981;49.104;11.396;2022-09-25T01:21:53;97470.50;;;10.31;97.23
48563;BME280;34981;49.104;11.396;2022-09-25T01:24:36;97464.28;;;10.31;97.23
48563;BME280;34981;49.104;11.396;2022-09-25T01:29:53;97466.97;;;10.31;97.25
48563;BME280;34981;49.104;11.396;2022-09-25T01:35:15;97479.47;;;10.25;97.25
48563;BME280;34981;49.104;11.396;2022-09-25T01:37:45;97478.66;;;10.25;97.25
48563;BME280;34981;49.104;11.396;2022-09-25T01:42:42;97473.97;;;10.20;97.26
48563;BME280;34981;49.104;11.396;2022-09-25T01:45:13;97478.31;;;10.21;97.26
48563;BME280;34981;49.104;11.396;2022-09-25T01:47:43;97475.84;;;10.20;97.27
48563;BME280;34981;49.104;11.396;2022-09-25T01:50:12;97474.22;;;10.19;97.27
48563;BME280;34981;49.104;11.396;2022-09-25T01:52:41;97469.88;;;10.18;97.29
48563;BME280;34981;49.104;11.396;2022-09-25T01:55:15;97466.81;;;10.14;97.29
48563;BME280;34981;49.104;11.396;2022-09-25T01:57:49;97468.09;;;10.11;97.39
48563;BME280;34981;49.104;11.396;2022-09-25T02:00:19;97475.69;;;10.14;97.41
48563;BME280;34981;49.104;11.396;2022-09-25T02:02:49;97481.63;;;10.16;97.42
48563;BME280;34981;49.104;11.396;2022-09-25T02:05:23;97480.41;;;10.19;97.44
48563;BME280;34981;49.104;11.396;2022-09-25T02:07:57;97481.44;;;10.18;97.43
48563;BME280;34981;49.104;11.396;2022-09-25T02:10:29;97481.53;;;10.11;97.44
48563;BME280;34981;49.104;11.396;2022-09-25T02:13:02;97482.56;;;10.10;97.44
48563;BME280;34981;49.104;11.396;2022-09-25T02:15:34;97483.59;;;10.09;97.43
48563;BME280;34981;49.104;11.396;2022-09-25T02:18:05;97480.91;;;10.09;97.46
48563;BME280;34981;49.104;11.396;2022-09-25T02:20:55;97482.78;;;10.09;97.47
48563;BME280;34981;49.104;11.396;2022-09-25T02:23:24;97481.97;;;10.08;97.50
48563;BME280;34981;49.104;11.396;2022-09-25T02:25:59;97484.09;;;10.06;97.51
48563;BME280;34981;49.104;11.396;2022-09-25T02:28:30;97492.72;;;10.08;97.50
48563;BME280;34981;49.104;11.396;2022-09-25T02:30:57;97494.59;;;10.08;97.52
48563;BME280;34981;49.104;11.396;2022-09-25T02:33:26;97502.66;;;10.08;97.52
48563;BME280;34981;49.104;11.396;2022-09-25T02:35:53;97515.50;;;10.06;97.53
48563;BME280;34981;49.104;11.396;2022-09-25T02:38:20;97517.16;;;10.07;97.53
48563;BME280;34981;49.104;11.396;2022-09-25T02:40:51;97533.00;;;10.08;97.55
48563;BME280;34981;49.104;11.396;2022-09-25T02:43:23;97528.13;;;10.05;97.54
48563;BME280;34981;49.104;11.396;2022-09-25T02:48:31;97543.19;;;10.06;97.55
48563;BME280;34981;49.104;11.396;2022-09-25T02:58:55;97549.47;;;10.00;97.61
48563;BME280;34981;49.104;11.396;2022-09-25T03:01:25;97552.28;;;10.05;97.63
48563;BME280;34981;49.104;11.396;2022-09-25T03:03:54;97557.19;;;10.08;97.65
48563;BME280;34981;49.104;11.396;2022-09-25T03:06:22;97559.31;;;10.06;97.66
48563;BME280;34981;49.104;11.396;2022-09-25T03:08:50;97553.47;;;10.09;97.66
48563;BME280;34981;49.104;11.396;2022-09-25T03:11:20;97561.09;;;10.12;97.67
48563;BME280;34981;49.104;11.396;2022-09-25T03:14:00;97561.78;;;10.08;97.66
48563;BME280;34981;49.104;11.396;2022-09-25T03:19:30;97554.25;;;9.98;97.65
48563;BME280;34981;49.104;11.396;2022-09-25T03:21:57;97563.78;;;9.94;97.64
48563;BME280;34981;49.104;11.396;2022-09-25T03:24:25;97566.25;;;9.96;97.66
48563;BME280;34981;49.104;11.396;2022-09-25T03:26:52;97565.00;;;9.98;97.67
48563;BME280;34981;49.104;11.396;2022-09-25T03:29:22;97574.09;;;9.97;97.66
48563;BME280;34981;49.104;11.396;2022-09-25T03:31:49;97589.16;;;9.98;97.68
48563;BME280;34981;49.104;11.396;2022-09-25T03:34:16;97587.97;;;9.94;97.67
48563;BME280;34981;49.104;11.396;2022-09-25T03:36:44;97594.63;;;9.92;97.66
48563;BME280;34981;49.104;11.396;2022-09-25T03:39:14;97597.53;;;9.90;97.67
48563;BME280;34981;49.104;11.396;2022-09-25T03:41:43;97602.47;;;9.93;97.70
48563;BME280;34981;49.104;11.396;2022-09-25T03:44:10;97595.81;;;9.96;97.72
48563;BME280;34981;49.104;11.396;2022-09-25T03:46:38;97592.28;;;9.95;97.74
48563;BME280;34981;49.104;11.396;2022-09-25T03:49:05;97594.97;;;9.95;97.73
48563;BME280;34981;49.104;11.396;2022-09-25T03:51:33;97589.81;;;9.94;97.72
48563;BME280;34981;49.104;11.396;2022-09-25T03:54:01;97594.97;;;9.95;97.73
48563;BME280;34981;49.104;11.396;2022-09-25T03:56:30;97596.03;;;9.94;97.74
48563;BME280;34981;49.104;11.396;2022-09-25T03:58:58;97602.97;;;10.02;97.75
48563;BME280;34981;49.104;11.396;2022-09-25T04:01:26;97601.69;;;10.04;97.77
48563;BME280;34981;49.104;11.396;2022-09-25T04:03:53;97600.66;;;10.05;97.79
48563;BME280;34981;49.104;11.396;2022-09-25T04:06:21;97603.13;;;10.07;97.78
48563;BME280;34981;49.104;11.396;2022-09-25T04:08:50;97607.91;;;10.05;97.77
48563;BME280;34981;49.104;11.396;2022-09-25T04:11:18;97602.13;;;10.01;97.78
48563;BME280;34981;49.104;11.396;2022-09-25T04:13:46;97604.00;;;10.01;97.78
48563;BME280;34981;49.104;11.396;2022-09-25T04:16:13;97598.41;;;10.02;97.78
48563;BME280;34981;49.104;11.396;2022-09-25T04:18:42;97593.03;;;10.02;97.77
48563;BME280;34981;49.104;11.396;2022-09-25T04:21:10;97603.78;;;10.02;97.77
48563;BME280;34981;49.104;11.396;2022-09-25T04:23:38;97592.00;;;10.03;97.78
48563;BME280;34981;49.104;11.396;2022-09-25T04:26:05;97594.69;;;10.03;97.79
48563;BME280;34981;49.104;11.396;2022-09-25T04:28:33;97600.88;;;10.04;97.79
48563;BME280;34981;49.104;11.396;2022-09-25T04:31:01;97597.38;;;10.03;97.80
48563;BME280;34981;49.104;11.396;2022-09-25T04:33:29;97594.69;;;10.03;97.79
48563;BME280;34981;49.104;11.396;2022-09-25T04:36:13;97599.84;;;10.05;97.81
48563;BME280;34981;49.104;11.396;2022-09-25T04:38:40;97599.00;;;10.04;97.81
48563;BME280;34981;49.104;11.396;2022-09-25T04:41:07;97596.94;;;10.06;97.82
48563;BME280;34981;49.104;11.396;2022-09-25T04:43:34;97596.31;;;10.04;97.82
48563;BME280;34981;49.104;11.396;2022-09-25T04:46:05;97602.31;;;10.06;97.82
48563;BME280;34981;49.104;11.396;2022-09-25T04:48:33;97602.88;;;10.08;97.84
48563;BME280;34981;49.104;11.396;2022-09-25T04:51:02;97607.22;;;10.09;97.84
48563;BME280;34981;49.104;11.396;2022-09-25T04:53:30;97609.91;;;10.09;97.85
48563;BME280;34981;49.104;11.396;2022-09-25T04:56:04;97616.91;;;10.10;97.84
48563;BME280;34981;49.104;11.396;2022-09-25T04:58:47;97608.84;;;10.10;97.84
48563;BME280;34981;49.104;11.396;2022-09-25T05:01:16;97615.88;;;10.11;97.86
48563;BME280;34981;49.104;11.396;2022-09-25T05:03:46;97616.69;;;10.12;97.88
48563;BME280;34981;49.104;11.396;2022-09-25T05:06:13;97616.69;;;10.12;97.87
48563;BME280;34981;49.104;11.396;2022-09-25T05:08:40;97617.50;;;10.12;97.88
48563;BME280;34981;49.104;11.396;2022-09-25T05:11:07;97619.97;;;10.14;97.88
48563;BME280;34981;49.104;11.396;2022-09-25T05:13:34;97624.31;;;10.15;97.89
48563;BME280;34981;49.104;11.396;2022-09-25T05:16:02;97622.41;;;10.15;97.90
48563;BME280;34981;49.104;11.396;2022-09-25T05:18:29;97622.41;;;10.15;97.90
48563;BME280;34981;49.104;11.396;2022-09-25T05:20:56;97625.09;;;10.15;97.90
48563;BME280;34981;49.104;11.396;2022-09-25T05:23:23;97627.59;;;10.17;97.92
48563;BME280;34981;49.104;11.396;2022-09-25T05:25:53;97633.16;;;10.15;97.91
48563;BME280;34981;49.104;11.396;2022-09-25T05:28:24;97630.47;;;10.15;97.91
48563;BME280;34981;49.104;11.396;2022-09-25T05:30:51;97633.16;;;10.15;97.94
48563;BME280;34981;49.104;11.396;2022-09-25T05:33:18;97639.38;;;10.16;97.92
48563;BME280;34981;49.104;11.396;2022-09-25T05:35:45;97643.91;;;10.15;97.95
48563;BME280;34981;49.104;11.396;2022-09-25T05:38:12;97644.75;;;10.16;97.94
48563;BME280;34981;49.104;11.396;2022-09-25T05:40:39;97654.25;;;10.19;97.94
48563;BME280;34981;49.104;11.396;2022-09-25T05:43:07;97656.72;;;10.20;97.95
48563;BME280;34981;49.104;11.396;2022-09-25T05:45:34;97654.88;;;10.21;97.96
48563;BME280;34981;49.104;11.396;2022-09-25T05:48:02;97657.09;;;10.24;97.96
48563;BME280;34981;49.104;11.396;2022-09-25T05:50:29;97674.84;;;10.25;97.97
48563;BME280;34981;49.104;11.396;2022-09-25T05:52:59;97676.50;;;10.26;97.98
48563;BME280;34981;49.104;11.396;2022-09-25T05:55:26;97729.22;;;10.27;97.97
48563;BME280;34981;49.104;11.396;2022-09-25T05:57:58;97734.59;;;10.27;97.97
48563;BME280;34981;49.104;11.396;2022-09-25T06:00:25;97739.75;;;10.28;98.00
48563;BME280;34981;49.104;11.396;2022-09-25T06:02:54;97748.38;;;10.30;98.00
48563;BME280;34981;49.104;11.396;2022-09-25T06:05:21;97743.00;;;10.30;98.00
48563;BME280;34981;49.104;11.396;2022-09-25T06:07:52;97751.91;;;10.31;98.01
48563;BME280;34981;49.104;11.396;2022-09-25T06:10:19;97754.38;;;10.32;98.02
48563;BME280;34981;49.104;11.396;2022-09-25T06:12:46;97764.91;;;10.34;98.01
48563;BME280;34981;49.104;11.396;2022-09-25T06:15:14;97764.69;;;10.35;98.02
48563;BME280;34981;49.104;11.396;2022-09-25T06:17:41;97762.00;;;10.35;98.02
48563;BME280;34981;49.104;11.396;2022-09-25T06:20:08;97769.84;;;10.37;98.03
48563;BME280;34981;49.104;11.396;2022-09-25T06:22:42;97768.00;;;10.37;98.04
48563;BME280;34981;49.104;11.396;2022-09-25T06:25:10;97770.44;;;10.39;98.06
48563;BME280;34981;49.104;11.396;2022-09-25T06:27:37;97770.22;;;10.40;98.05
48563;BME280;34981;49.104;11.396;2022-09-25T06:30:04;97772.69;;;10.42;98.06
48563;BME280;34981;49.104;11.396;2022-09-25T06:32:31;97777.84;;;10.43;98.04
48563;BME280;34981;49.104;11.396;2022-09-25T06:34:58;97779.25;;;10.46;98.07
48563;BME280;34981;49.104;11.396;2022-09-25T06:37:25;97785.22;;;10.48;98.08
48563;BME280;34981;49.104;11.396;2022-09-25T06:39:52;97787.47;;;10.51;98.10
48563;BME280;34981;49.104;11.396;2022-09-25T06:42:19;97789.09;;;10.52;98.11
48563;BME280;34981;49.104;11.396;2022-09-25T06:44:46;97791.78;;;10.52;98.12
48563;BME280;34981;49.104;11.396;2022-09-25T06:47:13;97791.56;;;10.53;98.13
48563;BME280;34981;49.104;11.396;2022-09-25T06:49:45;97794.03;;;10.55;98.13
48563;BME280;34981;49.104;11.396;2022-09-25T06:52:12;97808.09;;;10.57;98.14
48563;BME280;34981;49.104;11.396;2022-09-25T06:54:39;97807.88;;;10.59;98.16
48563;BME280;34981;49.104;11.396;2022-09-25T06:57:10;97807.63;;;10.60;98.18
48563;BME280;34981;49.104;11.396;2022-09-25T06:59:38;97812.56;;;10.63;98.19
48563;BME280;34981;49.104;11.396;2022-09-25T07:02:05;97815.84;;;10.65;98.20
48563;BME280;34981;49.104;11.396;2022-09-25T07:04:51;97819.13;;;10.67;98.19
48563;BME280;34981;49.104;11.396;2022-09-25T07:07:18;97826.97;;;10.69;98.20
48563;BME280;34981;49.104;11.396;2022-09-25T07:09:46;97828.41;;;10.71;98.21
48563;BME280;34981;49.104;11.396;2022-09-25T07:12:14;97845.16;;;10.73;98.21
48563;BME280;34981;49.104;11.396;2022-09-25T07:14:41;97851.94;;;10.76;98.24
48563;BME280;34981;49.104;11.396;2022-09-25T07:17:10;97887.50;;;10.78;98.25
48563;BME280;34981;49.104;11.396;2022-09-25T07:19:37;97891.63;;;10.80;98.24
48563;BME280;34981;49.104;11.396;2022-09-25T07:22:04;97900.28;;;10.82;98.26
48563;BME280;34981;49.104;11.396;2022-09-25T07:24:31;97899.25;;;10.83;98.29
48563;BME280;34981;49.104;11.396;2022-09-25T07:26:59;97902.53;;;10.85;98.29
48563;BME280;34981;49.104;11.396;2022-09-25T07:29:26;97902.31;;;10.87;98.29
48563;BME280;34981;49.104;11.396;2022-09-25T07:31:53;97908.75;;;10.86;98.29
48563;BME280;34981;49.104;11.396;2022-09-25T07:34:20;97913.28;;;10.85;98.28
48563;BME280;34981;49.104;11.396;2022-09-25T07:36:47;97924.88;;;10.86;98.29
48563;BME280;34981;49.104;11.396;2022-09-25T07:39:14;97929.44;;;10.85;98.30
48563;BME280;34981;49.104;11.396;2022-09-25T07:41:44;97934.34;;;10.88;98.30
48563;BME280;34981;49.104;11.396;2022-09-25T07:44:12;97940.97;;;10.92;98.30
48563;BME280;34981;49.104;11.396;2022-09-25T07:46:59;97939.91;;;10.93;98.33
48563;BME280;34981;49.104;11.396;2022-09-25T07:49:27;97944.84;;;10.97;98.34
48563;BME280;34981;49.104;11.396;2022-09-25T07:51:55;97952.91;;;10.97;98.32
48563;BME280;34981;49.104;11.396;2022-09-25T07:54:22;97960.16;;;10.96;98.34
48563;BME280;34981;49.104;11.396;2022-09-25T07:56:50;97966.59;;;10.95;98.35
48563;BME280;34981;49.104;11.396;2022-09-25T07:59:17;97970.69;;;10.98;98.35
48563;BME280;34981;49.104;11.396;2022-09-25T08:01:44;97975.66;;;11.01;98.37
48563;BME280;34981;49.104;11.396;2022-09-25T08:04:19;97970.28;;;11.01;98.37
48563;BME280;34981;49.104;11.396;2022-09-25T08:06:46;97976.47;;;11.01;98.37
48563;BME280;34981;49.104;11.396;2022-09-25T08:09:13;97989.72;;;11.03;98.37
48563;BME280;34981;49.104;11.396;2022-09-25T08:11:41;97983.25;;;11.04;98.38
48563;BME280;34981;49.104;11.396;2022-09-25T08:14:09;97983.88;;;11.06;98.38
48563;BME280;34981;49.104;11.396;2022-09-25T08:16:36;97993.59;;;11.07;98.38
48563;BME280;34981;49.104;11.396;2022-09-25T08:19:04;97990.91;;;11.07;98.39
48563;BME280;34981;49.104;11.396;2022-09-25T08:21:31;97998.53;;;11.10;98.38
48563;BME280;34981;49.104;11.396;2022-09-25T08:23:58;98001.25;;;11.10;98.39
48563;BME280;34981;49.104;11.396;2022-09-25T08:26:26;98010.72;;;11.12;98.40
48563;BME280;34981;49.104;11.396;2022-09-25T08:28:54;98019.41;;;11.14;98.41
48563;BME280;34981;49.104;11.396;2022-09-25T08:31:22;98010.28;;;11.15;98.41
48563;BME280;34981;49.104;11.396;2022-09-25T08:33:49;98016.28;;;11.17;98.41
48563;BME280;34981;49.104;11.396;2022-09-25T08:36:17;98012.28;;;11.20;98.42
48563;BME280;34981;49.104;11.396;2022-09-25T08:38:44;98005.44;;;11.24;98.46
48563;BME280;34981;49.104;11.396;2022-09-25T08:41:22;97969.41;;;11.25;98.46
48563;BME280;34981;49.104;11.396;2022-09-25T08:44:15;97956.06;;;11.30;98.47
48563;BME280;34981;49.104;11.396;2022-09-25T08:49:53;97929.28;;;11.35;98.48
48563;BME280;34981;49.104;11.396;2022-09-25T08:52:17;97882.47;;;11.36;98.49
48563;BME280;34981;49.104;11.396;2022-09-25T08:54:46;97873.34;;;11.37;98.50
48563;BME280;34981;49.104;11.396;2022-09-25T08:57:30;97880.63;;;11.48;98.52
48563;BME280;34981;49.104;11.396;2022-09-25T09:00:06;97881.75;;;11.59;98.57
48563;BME280;34981;49.104;11.396;2022-09-25T09:02:39;97883.28;;;11.66;98.58
48563;BME280;34981;49.104;11.396;2022-09-25T09:05:30;97759.38;;;11.66;98.60
48563;BME280;34981;49.104;11.396;2022-09-25T09:07:59;97907.25;;;11.75;98.59
48563;BME280;34981;49.104;11.396;2022-09-25T09:18:28;97980.81;;;12.05;98.70
48563;BME280;34981;49.104;11.396;2022-09-25T09:20:56;97984.25;;;12.12;98.70
48563;BME280;34981;49.104;11.396;2022-09-25T09:23:28;97990.59;;;12.18;98.72
48563;BME280;34981;49.104;11.396;2022-09-25T09:26:14;98001.41;;;12.29;98.75
48563;BME280;34981;49.104;11.396;2022-09-25T09:36:45;98043.19;;;12.38;98.77
48563;BME280;34981;49.104;11.396;2022-09-25T09:49:33;98068.31;;;12.51;98.80
48563;BME280;34981;49.104;11.396;2022-09-25T09:52:06;98074.53;;;12.51;98.80
48563;BME280;34981;49.104;11.396;2022-09-25T09:54:37;98075.53;;;12.68;98.85
48563;BME280;34981;49.104;11.396;2022-09-25T09:57:11;98078.66;;;12.65;98.84
48563;BME280;34981;49.104;11.396;2022-09-25T09:59:42;98077.84;;;12.65;98.83
48563;BME280;34981;49.104;11.396;2022-09-25T10:02:24;98073.03;;;12.67;98.82
48563;BME280;34981;49.104;11.396;2022-09-25T10:04:53;98067.66;;;12.67;98.82
48563;BME280;34981;49.104;11.396;2022-09-25T10:07:21;98068.25;;;12.69;98.83
48563;BME280;34981;49.104;11.396;2022-09-25T10:09:49;98077.06;;;12.76;98.84
48563;BME280;34981;49.104;11.396;2022-09-25T10:12:21;98073.66;;;12.80;98.85
48563;BME280;34981;49.104;11.396;2022-09-25T10:14:51;98071.09;;;12.85;98.85
48563;BME280;34981;49.104;11.396;2022-09-25T10:17:18;98068.16;;;12.87;98.86
48563;BME280;34981;49.104;11.396;2022-09-25T10:19:47;98071.81;;;12.93;98.86
48563;BME280;34981;49.104;11.396;2022-09-25T10:22:15;98074.88;;;12.96;98.85
48563;BME280;34981;49.104;11.396;2022-09-25T10:27:25;98064.06;;;12.96;98.85
48563;BME280;34981;49.104;11.396;2022-09-25T10:30:00;98055.63;;;12.93;98.83
48563;BME280;34981;49.104;11.396;2022-09-25T10:32:28;98055.38;;;12.94;98.83
48563;BME280;34981;49.104;11.396;2022-09-25T10:34:55;98038.34;;;12.82;98.79
48563;BME280;34981;49.104;11.396;2022-09-25T10:37:30;98039.50;;;12.86;98.81
48563;BME280;34981;49.104;11.396;2022-09-25T10:40:01;98031.53;;;12.79;98.78
48563;BME280;34981;49.104;11.396;2022-09-25T10:42:31;98039.50;;;12.86;98.78
48563;BME280;34981;49.104;11.396;2022-09-25T10:45:13;98022.59;;;12.79;98.78
48563;BME280;34981;49.104;11.396;2022-09-25T10:47:41;98022.25;;;12.87;98.78
48563;BME280;34981;49.104;11.396;2022-09-25T10:50:27;98027.69;;;12.99;98.81
48563;BME280;34981;49.104;11.396;2022-09-25T10:52:55;98024.84;;;12.94;98.79
48563;BME280;34981;49.104;11.396;2022-09-25T10:55:29;98014.16;;;12.87;98.75
48563;BME280;34981;49.104;11.396;2022-09-25T10:58:10;98015.81;;;12.88;98.76
48563;BME280;34981;49.104;11.396;2022-09-25T11:03:05;98013.72;;;12.90;98.76
48563;BME280;34981;49.104;11.396;2022-09-25T11:05:46;98004.91;;;12.95;98.76
48563;BME280;34981;49.104;11.396;2022-09-25T11:08:13;98001.16;;;12.96;98.75
48563;BME280;34981;49.104;11.396;2022-09-25T11:10:47;97997.84;;;12.94;98.73
48563;BME280;34981;49.104;11.396;2022-09-25T11:13:19;97991.06;;;12.91;98.73
48563;BME280;34981;49.104;11.396;2022-09-25T11:15:50;97987.66;;;12.96;98.71
48563;BME280;34981;49.104;11.396;2022-09-25T11:18:38;97978.72;;;12.95;98.72
48563;BME280;34981;49.104;11.396;2022-09-25T11:21:16;97975.56;;;12.98;98.73
48563;BME280;34981;49.104;11.396;2022-09-25T11:24:28;97978.88;;;13.00;98.71
48563;BME280;34981;49.104;11.396;2022-09-25T11:32:18;97967.81;;;13.02;98.68
48563;BME280;34981;49.104;11.396;2022-09-25T11:37:38;97949.97;;;13.01;98.67
48563;BME280;34981;49.104;11.396;2022-09-25T11:43:00;97941.16;;;13.05;98.67
48563;BME280;34981;49.104;11.396;2022-09-25T11:45:29;97936.72;;;12.99;98.66
48563;BME280;34981;49.104;11.396;2022-09-25T11:48:03;97932.47;;;13.03;98.65
48563;BME280;34981;49.104;11.396;2022-09-25T11:50:41;97934.81;;;13.11;98.67
48563;BME280;34981;49.104;11.396;2022-09-25T11:53:20;97926.84;;;13.16;98.68
48563;BME280;34981;49.104;11.396;2022-09-25T12:06:17;97922.56;;;13.44;98.71
48563;BME280;34981;49.104;11.396;2022-09-25T12:11:32;97918.78;;;13.45;98.72
48563;BME280;34981;49.104;11.396;2022-09-25T12:16:50;97912.44;;;13.51;98.71
48563;BME280;34981;49.104;11.396;2022-09-25T12:22:07;97907.81;;;13.63;98.72
48563;BME280;34981;49.104;11.396;2022-09-25T12:24:42;97916.44;;;13.77;98.74
48563;BME280;34981;49.104;11.396;2022-09-25T12:27:14;97913.66;;;13.88;98.74
48563;BME280;34981;49.104;11.396;2022-09-25T12:29:49;97904.69;;;13.99;98.76
48563;BME280;34981;49.104;11.396;2022-09-25T12:32:31;97904.88;;;14.10;98.78
48563;BME280;34981;49.104;11.396;2022-09-25T12:37:58;97885.19;;;13.97;98.73
48563;BME280;34981;49.104;11.396;2022-09-25T12:40:30;97873.72;;;13.90;98.69
48563;BME280;34981;49.104;11.396;2022-09-25T12:42:59;97861.75;;;13.86;98.67
48563;BME280;34981;49.104;11.396;2022-09-25T12:45:48;97854.19;;;13.88;98.67
48563;BME280;34981;49.104;11.396;2022-09-25T12:48:32;97850.03;;;13.97;98.68
48563;BME280;34981;49.104;11.396;2022-09-25T12:51:02;97853.75;;;14.08;98.68
48563;BME280;34981;49.104;11.396;2022-09-25T12:53:38;97844.00;;;14.07;98.67
48563;BME280;34981;49.104;11.396;2022-09-25T12:58:41;97830.78;;;14.11;98.64
48563;BME280;34981;49.104;11.396;2022-09-25T13:01:21;97820.22;;;14.09;98.65
48563;BME280;34981;49.104;11.396;2022-09-25T13:09:31;97798.81;;;14.24;98.59
48563;BME280;34981;49.104;11.396;2022-09-25T13:14:43;97802.59;;;14.40;98.60
48563;BME280;34981;49.104;11.396;2022-09-25T13:17:12;97803.97;;;14.43;98.61
48563;BME280;34981;49.104;11.396;2022-09-25T13:19:41;97800.22;;;14.44;98.59
48563;BME280;34981;49.104;11.396;2022-09-25T13:22:10;97800.53;;;14.47;98.58
48563;BME280;34981;49.104;11.396;2022-09-25T13:24:41;97786.34;;;14.40;98.53
48563;BME280;34981;49.104;11.396;2022-09-25T13:27:12;97784.63;;;14.34;98.51
48563;BME280;34981;49.104;11.396;2022-09-25T13:29:40;97777.06;;;14.36;98.48
48563;BME280;34981;49.104;11.396;2022-09-25T13:32:15;97766.69;;;14.28;98.45
48563;BME280;34981;49.104;11.396;2022-09-25T13:34:43;97767.56;;;14.33;98.45
48563;BME280;34981;49.104;11.396;2022-09-25T13:37:11;97762.72;;;14.35;98.44
48563;BME280;34981;49.104;11.396;2022-09-25T13:39:45;97761.09;;;14.34;98.41
48563;BME280;34981;49.104;11.396;2022-09-25T13:42:34;97727.03;;;14.17;98.36
48563;BME280;34981;49.104;11.396;2022-09-25T13:47:55;97730.38;;;14.24;98.33
48563;BME280;34981;49.104;11.396;2022-09-25T13:53:00;97729.38;;;14.30;98.31
48563;BME280;34981;49.104;11.396;2022-09-25T13:56:03;97730.00;;;14.37;98.33
48563;BME280;34981;49.104;11.396;2022-09-25T13:58:57;97718.16;;;14.38;98.32
48563;BME280;34981;49.104;11.396;2022-09-25T14:01:34;97720.50;;;14.34;98.32
48563;BME280;34981;49.104;11.396;2022-09-25T14:06:42;97717.41;;;14.26;98.29
48563;BME280;34981;49.104;11.396;2022-09-25T14:09:11;97707.84;;;14.18;98.26
48563;BME280;34981;49.104;11.396;2022-09-25T14:11:40;97702.75;;;14.22;98.27
48563;BME280;34981;49.104;11.396;2022-09-25T14:14:12;97706.53;;;14.21;98.28
48563;BME280;34981;49.104;11.396;2022-09-25T14:16:44;97698.78;;;14.08;98.22
48563;BME280;34981;49.104;11.396;2022-09-25T14:19:22;97688.88;;;13.96;98.18
48563;BME280;34981;49.104;11.396;2022-09-25T14:21:50;97690.84;;;14.01;98.18
48563;BME280;34981;49.104;11.396;2022-09-25T14:24:18;97682.63;;;13.96;98.18
48563;BME280;34981;49.104;11.396;2022-09-25T14:26:47;97684.97;;;13.87;98.15
48563;BME280;34981;49.104;11.396;2022-09-25T14:29:16;97663.44;;;13.76;98.08
48563;BME280;34981;49.104;11.396;2022-09-25T14:31:57;97657.13;;;13.70;98.07
48563;BME280;34981;49.104;11.396;2022-09-25T14:34:38;97643.28;;;13.67;98.04
48563;BME280;34981;49.104;11.396;2022-09-25T14:40:00;97621.59;;;13.61;98.01
48563;BME280;34981;49.104;11.396;2022-09-25T14:42:33;97621.28;;;13.58;98.00
48563;BME280;34981;49.104;11.396;2022-09-25T14:47:33;97618.84;;;13.56;97.98
48563;BME280;34981;49.104;11.396;2022-09-25T14:50:02;97618.00;;;13.56;97.97
48563;BME280;34981;49.104;11.396;2022-09-25T14:52:32;97618.84;;;13.56;97.97
48563;BME280;34981;49.104;11.396;2022-09-25T14:55:00;97602.97;;;13.43;97.93
48563;BME280;34981;49.104;11.396;2022-09-25T14:57:30;97602.63;;;13.40;97.90
48563;BME280;34981;49.104;11.396;2022-09-25T15:00:00;97602.63;;;13.40;97.89
48563;BME280;34981;49.104;11.396;2022-09-25T15:02:32;97589.13;;;13.40;97.90
48563;BME280;34981;49.104;11.396;2022-09-25T15:07:50;97596.75;;;13.43;97.89
48563;BME280;34981;49.104;11.396;2022-09-25T15:12:50;97597.00;;;13.41;97.89
48563;BME280;34981;49.104;11.396;2022-09-25T15:15:20;97598.38;;;13.44;97.91